Time;durP1;ratioP1;P1;durP2;ratioP2;P2;SDS_P1;SDS_P2;PMS_P1;PMS_P2;Temp;Humidity;BMP_temperature;BMP_pressure;BME280_temperature;BME280_humidity;BME280_pressure;Samples;Min_cycle;Max_cycle;Signal;HPM_P1;HPM_P2
2021/12/11 00:04:28;;;;;;;8.70;6.13;;;16.80;51.70;;;;;;10405854;28;20252;-66
2021/12/11 00:09:53;;;;;;;8.13;6.20;;;16.70;51.60;;;;;;10402711;28;20213;-66
2021/12/11 00:15:21;;;;;;;7.77;6.00;;;16.70;51.70;;;;;;10409678;28;20943;-66
2021/12/11 00:20:51;;;;;;;8.60;6.23;;;16.70;51.70;;;;;;10414410;28;20213;-66
2021/12/11 00:26:13;;;;;;;8.97;6.87;;;16.80;51.70;;;;;;10416892;28;20194;-67
2021/12/11 00:31:42;;;;;;;8.13;5.70;;;16.70;51.70;;;;;;10416397;28;20232;-66
2021/12/11 00:37:06;;;;;;;7.77;5.90;;;16.70;51.80;;;;;;10414429;28;20218;-66
2021/12/11 00:42:33;;;;;;;7.50;6.27;;;16.70;51.90;;;;;;10416885;28;20225;-67
2021/12/11 00:48:00;;;;;;;8.53;6.10;;;16.70;51.80;;;;;;10415658;28;20218;-66
2021/12/11 00:53:26;;;;;;;7.73;5.83;;;16.70;51.80;;;;;;10408824;28;20194;-64
2021/12/11 00:58:51;;;;;;;7.53;5.80;;;16.70;51.90;;;;;;10416466;28;20751;-66
2021/12/11 01:04:17;;;;;;;7.70;6.33;;;16.70;51.90;;;;;;10416624;28;20240;-67
2021/12/11 01:09:42;;;;;;;7.17;6.00;;;16.70;52.00;;;;;;10416427;28;20205;-66
2021/12/11 01:15:13;;;;;;;7.80;6.17;;;16.70;52.00;;;;;;10403315;28;20581;-67
2021/12/11 01:20:52;;;;;;;7.07;5.90;;;16.70;52.00;;;;;;10375048;28;20223;-66
2021/12/11 01:26:20;;;;;;;8.10;6.33;;;16.70;52.00;;;;;;10376070;28;20685;-67
2021/12/11 01:31:42;;;;;;;8.27;6.50;;;16.70;52.10;;;;;;10374785;28;20194;-66
2021/12/11 01:37:07;;;;;;;7.93;5.93;;;16.70;52.70;;;;;;10375166;28;20225;-66
2021/12/11 01:42:35;;;;;;;7.30;5.70;;;16.70;52.10;;;;;;10413569;28;20220;-66
2021/12/11 01:47:58;;;;;;;7.77;6.20;;;16.80;52.20;;;;;;10408585;28;20217;-67
2021/12/11 01:53:27;;;;;;;8.23;5.97;;;16.70;52.20;;;;;;10374384;28;20221;-67
2021/12/11 01:58:58;;;;;;;7.67;6.20;;;16.70;52.20;;;;;;10373769;28;20222;-66
2021/12/11 02:04:23;;;;;;;9.17;6.30;;;16.70;52.20;;;;;;10375091;28;20195;-66
2021/12/11 02:09:54;;;;;;;8.07;6.00;;;16.70;52.30;;;;;;10414515;28;20236;-66
2021/12/11 02:15:24;;;;;;;7.50;6.17;;;16.70;52.30;;;;;;10413445;28;20585;-66
2021/12/11 02:20:51;;;;;;;6.93;5.50;;;16.70;52.30;;;;;;10412475;28;20340;-66
2021/12/11 02:26:17;;;;;;;8.53;6.23;;;16.70;52.30;;;;;;10413504;28;20196;-66
2021/12/11 02:31:46;;;;;;;8.20;6.03;;;16.70;52.30;;;;;;10412550;28;20229;-66
2021/12/11 02:37:11;;;;;;;7.43;6.10;;;16.70;52.30;;;;;;10408943;28;20218;-66
2021/12/11 02:42:40;;;;;;;7.90;6.13;;;16.70;52.30;;;;;;10389050;28;20229;-66
2021/12/11 02:48:13;;;;;;;8.60;6.27;;;16.70;52.40;;;;;;10412476;28;20206;-67
2021/12/11 02:53:40;;;;;;;7.57;5.80;;;16.70;52.40;;;;;;10412422;28;20217;-66
2021/12/11 02:59:09;;;;;;;7.60;5.83;;;16.70;52.40;;;;;;10411010;28;20217;-67
2021/12/11 03:04:39;;;;;;;8.23;6.00;;;16.70;52.40;;;;;;10411947;28;20577;-66
2021/12/11 03:10:01;;;;;;;6.97;5.70;;;16.70;52.50;;;;;;10411219;28;20804;-67
2021/12/11 03:15:25;;;;;;;7.03;5.93;;;16.70;52.50;;;;;;10411392;28;20202;-66
2021/12/11 03:20:50;;;;;;;7.70;6.27;;;16.70;52.50;;;;;;10411227;28;20306;-66
2021/12/11 03:26:13;;;;;;;7.73;5.77;;;16.70;52.50;;;;;;10392742;28;20197;-66
2021/12/11 03:31:37;;;;;;;6.60;5.57;;;16.70;52.60;;;;;;10410402;28;20226;-66
2021/12/11 03:37:01;;;;;;;7.60;6.00;;;16.70;52.60;;;;;;10392553;28;20206;-67
2021/12/11 03:42:28;;;;;;;7.30;5.70;;;16.70;52.60;;;;;;10370824;28;20214;-67
2021/12/11 03:47:55;;;;;;;8.37;6.17;;;16.70;52.60;;;;;;10394411;28;20213;-66
2021/12/11 03:53:18;;;;;;;7.43;5.80;;;16.70;52.60;;;;;;10415373;28;20194;-66
2021/12/11 03:58:48;;;;;;;8.73;6.70;;;16.70;52.70;;;;;;10419067;28;20224;-67
2021/12/11 04:04:16;;;;;;;7.87;5.70;;;16.70;52.70;;;;;;10403615;28;20205;-66
2021/12/11 04:09:38;;;;;;;7.80;5.77;;;16.70;52.60;;;;;;10419907;28;20209;-66
2021/12/11 04:15:00;;;;;;;7.97;6.10;;;16.70;52.60;;;;;;10418554;28;20198;-66
2021/12/11 04:20:27;;;;;;;7.90;6.43;;;16.60;53.20;;;;;;10419374;28;20243;-66
2021/12/11 04:25:53;;;;;;;7.53;6.10;;;16.70;52.70;;;;;;10417734;28;20193;-66
2021/12/11 04:31:20;;;;;;;7.53;5.80;;;16.70;52.70;;;;;;10406620;28;20225;-66
2021/12/11 04:36:48;;;;;;;8.43;6.03;;;16.70;52.70;;;;;;10377633;28;20210;-65
2021/12/11 04:42:19;;;;;;;7.97;6.00;;;16.70;52.70;;;;;;10405400;28;20285;-67
2021/12/11 04:47:46;;;;;;;7.43;5.93;;;16.70;52.70;;;;;;10418192;28;20210;-67
2021/12/11 04:53:25;;;;;;;7.40;5.93;;;16.60;52.70;;;;;;10405117;28;20564;-66
2021/12/11 04:59:12;;;;;;;7.23;5.70;;;16.60;52.80;;;;;;10416255;28;20210;-66
2021/12/11 05:04:49;;;;;;;6.00;4.87;;;16.70;53.40;;;;;;10414666;28;20224;-66
2021/12/11 05:10:21;;;;;;;7.93;5.87;;;16.70;52.80;;;;;;10416004;28;20693;-66
2021/12/11 05:15:46;;;;;;;8.43;6.10;;;16.70;52.80;;;;;;10416197;28;20197;-66
2021/12/11 05:21:11;;;;;;;7.43;5.80;;;16.70;52.90;;;;;;10415151;28;20565;-66
2021/12/11 05:26:36;;;;;;;6.50;5.47;;;16.70;52.90;;;;;;10415446;28;20692;-66
2021/12/11 05:31:59;;;;;;;7.40;5.70;;;16.70;52.90;;;;;;10424631;22;20301;-70
2021/12/11 05:37:22;;;;;;;7.63;5.57;;;16.70;52.90;;;;;;10393801;28;20199;-70
2021/12/11 05:42:46;;;;;;;7.20;5.57;;;16.70;52.80;;;;;;10352985;28;20221;-70
2021/12/11 05:48:09;;;;;;;7.10;5.67;;;16.70;52.80;;;;;;10357742;28;20218;-70
2021/12/11 05:53:33;;;;;;;6.97;4.77;;;16.70;52.70;;;;;;10359146;28;20195;-70
2021/12/11 05:58:59;;;;;;;6.93;5.40;;;16.80;52.70;;;;;;10372988;28;20230;-70
2021/12/11 06:04:25;;;;;;;6.73;5.30;;;16.80;52.70;;;;;;10373323;28;20205;-70
2021/12/11 06:09:50;;;;;;;7.60;5.60;;;16.80;52.60;;;;;;10370944;28;20716;-70
2021/12/11 06:15:14;;;;;;;7.13;5.80;;;16.80;52.60;;;;;;10369967;28;20211;-70
2021/12/11 06:20:36;;;;;;;6.63;5.13;;;16.80;52.50;;;;;;10347644;28;20710;-70
2021/12/11 06:25:59;;;;;;;6.27;4.87;;;16.80;52.60;;;;;;10331662;28;20207;-70
2021/12/11 06:31:22;;;;;;;6.50;5.10;;;16.80;52.60;;;;;;10332130;28;20298;-70
2021/12/11 06:36:47;;;;;;;6.17;5.03;;;16.80;52.60;;;;;;10347948;28;20209;-71
2021/12/11 06:42:09;;;;;;;6.33;4.90;;;16.80;52.60;;;;;;10330170;28;20234;-70
2021/12/11 06:47:33;;;;;;;6.60;5.30;;;16.80;52.60;;;;;;10332553;28;20330;-71
2021/12/11 06:52:56;;;;;;;7.63;5.43;;;16.80;52.60;;;;;;10334080;28;20198;-72
2021/12/11 06:58:19;;;;;;;6.03;5.17;;;16.80;52.70;;;;;;10332898;28;20837;-71
2021/12/11 07:03:44;;;;;;;6.53;4.93;;;16.80;52.70;;;;;;10358327;28;20225;-71
2021/12/11 07:09:09;;;;;;;6.47;4.87;;;16.80;52.70;;;;;;10345391;28;20211;-72
2021/12/11 07:14:33;;;;;;;5.83;4.73;;;16.80;52.70;;;;;;10332944;28;20268;-71
2021/12/11 07:19:56;;;;;;;6.17;4.90;;;16.80;52.70;;;;;;10329589;28;20249;-71
2021/12/11 07:25:25;;;;;;;5.97;4.93;;;16.80;52.60;;;;;;10329607;28;20548;-71
2021/12/11 07:30:52;;;;;;;6.60;5.17;;;16.90;52.70;;;;;;10329682;28;20346;-71
2021/12/11 07:36:16;;;;;;;5.70;4.47;;;16.80;52.60;;;;;;10331099;28;20556;-71
2021/12/11 07:41:39;;;;;;;5.30;4.73;;;16.80;52.70;;;;;;10353965;28;20644;-70
2021/12/11 07:47:02;;;;;;;5.40;4.70;;;16.80;52.70;;;;;;10352731;28;20206;-70
2021/12/11 07:52:26;;;;;;;4.63;4.23;;;16.80;52.70;;;;;;10329213;28;20215;-66
2021/12/11 07:57:48;;;;;;;5.13;4.40;;;16.80;52.60;;;;;;10328208;28;20221;-66
2021/12/11 08:03:13;;;;;;;5.73;5.00;;;16.80;52.60;;;;;;10329225;28;20215;-66
2021/12/11 08:08:38;;;;;;;6.07;4.83;;;16.80;52.60;;;;;;10324336;28;20227;-66
2021/12/11 08:14:01;;;;;;;5.47;4.40;;;16.80;52.70;;;;;;10321882;28;20210;-66
2021/12/11 08:19:26;;;;;;;6.63;4.50;;;16.80;52.70;;;;;;10328555;28;20218;-66
2021/12/11 08:24:50;;;;;;;5.80;4.63;;;16.80;52.80;;;;;;10325380;28;20217;-66
2021/12/11 08:30:13;;;;;;;5.77;4.63;;;16.80;52.90;;;;;;10317667;28;20605;-66
2021/12/11 08:35:38;;;;;;;5.13;4.43;;;16.80;53.00;;;;;;10338897;28;20195;-66
2021/12/11 08:41:04;;;;;;;6.67;4.90;;;16.80;53.10;;;;;;10332650;28;20236;-65
2021/12/11 08:46:28;;;;;;;5.63;4.40;;;16.80;53.00;;;;;;10340173;28;20203;-64
2021/12/11 08:51:54;;;;;;;5.23;4.20;;;16.80;53.00;;;;;;10314325;28;20219;-65
2021/12/11 08:57:23;;;;;;;6.20;4.70;;;16.80;52.90;;;;;;10334621;28;20203;-66
2021/12/11 09:02:49;;;;;;;6.20;4.20;;;16.80;52.90;;;;;;10335492;28;20227;-66
2021/12/11 09:08:15;;;;;;;6.37;4.93;;;16.90;52.90;;;;;;10335584;28;20610;-66
2021/12/11 09:13:45;;;;;;;6.03;4.53;;;16.90;52.90;;;;;;10314983;28;20199;-65
2021/12/11 09:19:12;;;;;;;4.83;3.97;;;16.90;52.90;;;;;;10325471;28;20215;-65
2021/12/11 09:24:41;;;;;;;5.63;4.27;;;16.90;52.90;;;;;;10324437;28;20199;-65
2021/12/11 09:30:10;;;;;;;6.03;4.60;;;16.90;52.90;;;;;;10334641;28;20218;-66
2021/12/11 09:35:36;;;;;;;6.40;4.50;;;16.90;52.90;;;;;;10337572;28;20215;-67
2021/12/11 09:40:58;;;;;;;5.37;4.30;;;16.90;52.90;;;;;;10331066;28;20862;-65
2021/12/11 09:46:25;;;;;;;5.23;4.37;;;16.90;53.00;;;;;;10343776;28;20199;-66
2021/12/11 09:51:50;;;;;;;4.10;3.70;;;16.90;53.00;;;;;;10363919;28;20219;-65
2021/12/11 09:57:16;;;;;;;5.00;4.30;;;16.90;52.90;;;;;;10337150;28;20198;-65
2021/12/11 10:02:40;;;;;;;5.70;4.47;;;16.90;53.00;;;;;;10333160;28;20211;-65
2021/12/11 10:08:26;;;;;;;6.23;4.20;;;16.80;53.00;;;;;;10332415;28;20215;-64
2021/12/11 10:13:53;;;;;;;3.90;3.47;;;16.80;53.00;;;;;;10332240;28;20199;-65
2021/12/11 10:19:19;;;;;;;4.50;3.87;;;16.80;53.00;;;;;;10331337;28;20211;-66
2021/12/11 10:24:43;;;;;;;5.13;3.93;;;16.80;53.00;;;;;;10331764;28;20642;-66
2021/12/11 10:30:07;;;;;;;6.43;4.30;;;16.90;53.00;;;;;;10332501;28;20227;-66
2021/12/11 10:35:38;;;;;;;4.40;4.00;;;16.90;53.00;;;;;;10341366;28;20199;-66
2021/12/11 10:41:05;;;;;;;4.50;3.90;;;16.90;53.00;;;;;;10331523;28;20216;-65
2021/12/11 10:46:30;;;;;;;5.30;4.20;;;16.90;53.00;;;;;;10332472;28;20268;-65
2021/12/11 10:51:57;;;;;;;4.30;3.80;;;16.90;53.00;;;;;;10330985;28;20211;-66
2021/12/11 10:57:21;;;;;;;5.63;4.13;;;16.90;53.00;;;;;;10337046;28;20198;-65
2021/12/11 11:02:43;;;;;;;4.60;3.60;;;16.90;53.10;;;;;;10329744;28;20223;-65
2021/12/11 11:08:08;;;;;;;5.47;4.57;;;16.90;53.10;;;;;;10330341;28;20222;-65
2021/12/11 11:13:30;;;;;;;4.37;3.50;;;16.90;53.10;;;;;;10353446;28;20198;-64
2021/12/11 11:18:53;;;;;;;4.10;3.67;;;16.90;53.10;;;;;;10371325;28;20587;-65
2021/12/11 11:24:17;;;;;;;5.33;4.13;;;16.90;53.00;;;;;;10371307;28;20221;-65
2021/12/11 11:29:41;;;;;;;5.00;4.20;;;16.90;53.00;;;;;;10402444;22;20229;-65
2021/12/11 11:35:09;;;;;;;5.03;4.10;;;16.90;53.60;;;;;;10429067;28;20801;-65
2021/12/11 11:40:35;;;;;;;4.10;3.70;;;16.90;53.10;;;;;;10452896;28;20213;-62
2021/12/11 11:45:58;;;;;;;4.87;3.90;;;16.90;53.10;;;;;;10432554;28;20200;-63
2021/12/11 11:51:26;;;;;;;3.97;3.57;;;16.90;53.20;;;;;;10452380;28;20572;-63
2021/12/11 11:56:53;;;;;;;4.00;3.60;;;16.90;53.10;;;;;;10452152;28;20197;-63
2021/12/11 12:02:18;;;;;;;4.80;3.90;;;16.90;53.20;;;;;;10452204;28;20595;-64
2021/12/11 12:07:41;;;;;;;3.87;3.43;;;16.90;53.20;;;;;;10451984;28;20628;-63
2021/12/11 12:13:07;;;;;;;5.23;4.00;;;16.90;53.30;;;;;;10452967;28;20224;-63
2021/12/11 12:18:29;;;;;;;4.27;3.70;;;16.90;53.20;;;;;;10459073;28;20189;-63
2021/12/11 12:23:51;;;;;;;5.43;3.87;;;16.90;53.30;;;;;;10455203;28;20240;-64
2021/12/11 12:29:15;;;;;;;4.50;3.47;;;16.90;53.30;;;;;;10417308;28;20224;-63
2021/12/11 12:34:38;;;;;;;4.20;3.53;;;16.90;53.30;;;;;;10443581;28;20290;-63
2021/12/11 12:40:03;;;;;;;4.10;3.00;;;16.90;53.30;;;;;;10458400;28;20213;-63
2021/12/11 12:45:32;;;;;;;4.10;3.50;;;16.90;53.20;;;;;;10458471;28;20711;-63
2021/12/11 12:50:59;;;;;;;12.07;4.75;;;16.90;53.20;;;;;;10456246;28;20417;-64
2021/12/11 12:56:26;;;;;;;5.50;4.43;;;17.60;51.00;;;;;;10450715;28;20328;-63
2021/12/11 13:01:54;;;;;;;5.90;4.13;;;17.20;51.70;;;;;;10448153;28;20322;-63
2021/12/11 13:07:18;;;;;;;4.70;3.87;;;17.00;52.20;;;;;;10456647;28;20668;-63
2021/12/11 13:12:44;;;;;;;4.70;3.93;;;17.00;52.60;;;;;;10451134;28;20216;-61
2021/12/11 13:18:13;;;;;;;4.53;3.63;;;17.00;52.70;;;;;;10458163;28;20185;-64
2021/12/11 13:23:39;;;;;;;4.97;3.33;;;16.90;52.80;;;;;;10458639;28;20209;-63
2021/12/11 13:29:06;;;;;;;4.63;3.43;;;16.90;52.90;;;;;;10451502;28;20235;-64
2021/12/11 13:34:32;;;;;;;4.13;3.20;;;16.90;53.00;;;;;;10448974;28;20197;-63
2021/12/11 13:39:57;;;;;;;3.40;3.10;;;16.90;53.00;;;;;;10455977;28;20580;-63
2021/12/11 13:45:23;;;;;;;3.63;3.20;;;16.90;53.10;;;;;;10455622;28;20197;-63
2021/12/11 13:50:52;;;;;;;3.40;2.80;;;16.90;53.10;;;;;;10455437;28;20607;-63
2021/12/11 13:56:20;;;;;;;3.27;2.87;;;16.90;53.10;;;;;;10418192;28;20564;-59
2021/12/11 14:01:43;;;;;;;3.33;3.03;;;16.90;53.20;;;;;;10412637;28;20225;-63
2021/12/11 14:07:14;;;;;;;3.00;2.70;;;17.00;53.30;;;;;;10412749;28;20619;-64
2021/12/11 14:12:37;;;;;;;3.80;3.40;;;16.90;53.30;;;;;;10453488;28;20576;-61
2021/12/11 14:17:59;;;;;;;4.03;3.13;;;16.90;53.30;;;;;;10454988;28;20566;-64
2021/12/11 14:23:26;;;;;;;3.47;2.60;;;16.90;53.30;;;;;;10415293;28;20225;-64
2021/12/11 14:28:48;;;;;;;3.47;2.90;;;16.90;53.30;;;;;;10410991;28;20589;-63
2021/12/11 14:34:11;;;;;;;3.67;3.10;;;16.90;53.30;;;;;;10412503;28;20190;-64
2021/12/11 14:39:34;;;;;;;2.90;2.60;;;16.90;53.30;;;;;;10411603;28;20598;-63
2021/12/11 14:45:00;;;;;;;3.40;3.07;;;16.90;53.40;;;;;;10413126;28;20229;-63
2021/12/11 14:50:25;;;;;;;3.23;2.90;;;16.90;53.40;;;;;;10453010;28;20227;-64
2021/12/11 14:55:52;;;;;;;3.57;3.03;;;16.90;53.40;;;;;;10446766;28;20193;-63
2021/12/11 15:01:17;;;;;;;3.70;2.70;;;16.90;53.40;;;;;;10452888;28;20220;-63
2021/12/11 15:06:40;;;;;;;3.07;2.73;;;16.90;53.50;;;;;;10427882;28;20202;-63
2021/12/11 15:12:04;;;;;;;3.40;2.70;;;16.90;53.50;;;;;;10438798;28;20220;-63
2021/12/11 15:17:29;;;;;;;3.53;2.87;;;16.90;53.50;;;;;;10454139;28;20197;-63
2021/12/11 15:22:57;;;;;;;3.60;2.50;;;16.90;53.50;;;;;;10452769;28;20799;-63
2021/12/11 15:28:20;;;;;;;3.43;2.60;;;16.90;53.50;;;;;;10452984;28;20553;-63
2021/12/11 15:33:45;;;;;;;4.03;3.00;;;16.90;53.40;;;;;;10451764;28;20204;-63
2021/12/11 15:39:13;;;;;;;2.80;2.50;;;16.90;53.40;;;;;;10452787;28;20212;-63
2021/12/11 15:44:44;;;;;;;3.27;2.60;;;17.00;53.40;;;;;;10451405;28;20220;-63
2021/12/11 15:50:10;;;;;;;3.80;2.57;;;17.00;53.40;;;;;;10409761;28;20224;-63
2021/12/11 15:55:34;;;;;;;4.63;2.93;;;17.00;53.50;;;;;;10435194;28;20189;-63
2021/12/11 16:01:00;;;;;;;3.67;2.63;;;16.90;53.50;;;;;;10451229;28;20213;-63
2021/12/11 16:06:23;;;;;;;4.47;3.07;;;16.90;53.50;;;;;;10450265;28;20204;-64
2021/12/11 16:11:48;;;;;;;3.87;2.80;;;17.00;53.50;;;;;;10437916;28;20214;-63
2021/12/11 16:17:12;;;;;;;3.23;2.77;;;17.00;53.50;;;;;;10409996;28;20201;-63
2021/12/11 16:22:39;;;;;;;2.97;2.67;;;17.00;53.50;;;;;;10409837;28;20218;-61
2021/12/11 16:28:06;;;;;;;3.23;2.67;;;17.00;53.50;;;;;;10409064;28;20194;-63
2021/12/11 16:33:31;;;;;;;3.17;2.77;;;16.90;53.50;;;;;;10409677;28;20186;-64
2021/12/11 16:38:54;;;;;;;3.17;2.63;;;17.00;53.50;;;;;;10409375;28;20221;-63
2021/12/11 16:44:19;;;;;;;2.90;2.60;;;17.00;53.50;;;;;;10405108;28;20214;-64
2021/12/11 16:49:43;;;;;;;2.70;2.30;;;17.00;53.50;;;;;;10441218;28;20252;-63
2021/12/11 16:55:09;;;;;;;2.87;2.57;;;16.90;53.50;;;;;;10451349;28;20221;-63
2021/12/11 17:00:32;;;;;;;2.40;2.20;;;17.00;53.50;;;;;;10452535;28;20228;-63
2021/12/11 17:05:55;;;;;;;2.83;2.40;;;17.00;53.60;;;;;;10458289;28;20208;-65
2021/12/11 17:11:18;;;;;;;3.07;2.60;;;16.90;53.50;;;;;;10457345;28;20237;-63
2021/12/11 17:16:41;;;;;;;3.20;2.50;;;16.90;53.50;;;;;;10451043;28;20227;-64
2021/12/11 17:22:07;;;;;;;2.53;2.33;;;17.00;53.60;;;;;;10455859;28;20221;-63
2021/12/11 17:27:31;;;;;;;3.07;2.47;;;16.90;53.50;;;;;;10456403;28;20196;-63
2021/12/11 17:32:53;;;;;;;2.83;2.23;;;16.90;53.50;;;;;;10460678;22;20233;-64
2021/12/11 17:38:15;;;;;;;2.73;2.50;;;17.00;53.60;;;;;;10441506;28;20205;-64
2021/12/11 17:43:39;;;;;;;2.47;2.27;;;17.00;53.50;;;;;;10448153;28;20229;-63
2021/12/11 17:49:03;;;;;;;2.10;1.90;;;17.00;53.50;;;;;;10448644;28;20209;-64
2021/12/11 17:54:27;;;;;;;2.80;2.37;;;17.00;53.50;;;;;;10456038;28;20194;-65
2021/12/11 17:59:51;;;;;;;2.90;2.43;;;16.90;53.50;;;;;;10455297;28;20702;-64
2021/12/11 18:05:16;;;;;;;2.60;2.40;;;17.00;53.50;;;;;;10455730;28;20236;-64
2021/12/11 18:10:43;;;;;;;2.53;2.20;;;17.00;53.50;;;;;;10450510;28;20228;-64
2021/12/11 18:16:12;;;;;;;2.47;2.27;;;17.00;53.50;;;;;;10455235;28;20185;-64
2021/12/11 18:21:38;;;;;;;2.50;2.20;;;17.00;53.50;;;;;;10423797;28;20224;-66
2021/12/11 18:27:03;;;;;;;2.70;2.13;;;17.00;53.60;;;;;;10454314;28;20205;-65
2021/12/11 18:32:28;;;;;;;2.77;2.23;;;17.00;53.50;;;;;;10454177;28;20726;-64
2021/12/11 18:37:51;;;;;;;4.27;2.90;;;16.90;53.50;;;;;;10454310;28;20193;-64
2021/12/11 18:43:16;;;;;;;3.03;2.47;;;16.90;53.50;;;;;;10453927;28;20227;-66
2021/12/11 18:48:40;;;;;;;3.70;2.83;;;17.00;53.50;;;;;;10445635;28;20197;-64
2021/12/11 18:54:06;;;;;;;2.63;2.33;;;17.00;53.50;;;;;;10448435;28;20197;-64
2021/12/11 18:59:31;;;;;;;3.90;2.67;;;17.00;53.50;;;;;;10453346;28;20886;-64
2021/12/11 19:04:58;;;;;;;2.80;2.40;;;17.00;53.40;;;;;;10455131;28;20668;-66
2021/12/11 19:10:22;;;;;;;3.43;2.70;;;17.00;53.40;;;;;;10453792;28;20209;-64
2021/12/11 19:15:48;;;;;;;3.50;2.50;;;17.00;53.40;;;;;;10450698;28;20189;-64
2021/12/11 19:21:14;;;;;;;2.80;2.50;;;17.00;53.40;;;;;;10447577;28;20217;-65
2021/12/11 19:26:37;;;;;;;4.13;2.70;;;17.00;53.50;;;;;;10453388;28;20188;-64
2021/12/11 19:32:00;;;;;;;3.37;2.43;;;17.00;53.50;;;;;;10452939;28;20240;-64
2021/12/11 19:37:24;;;;;;;2.57;2.37;;;17.00;53.50;;;;;;10442930;28;20550;-64
2021/12/11 19:42:47;;;;;;;2.37;2.17;;;17.00;53.40;;;;;;10410406;28;20217;-64
2021/12/11 19:48:11;;;;;;;3.60;2.73;;;17.00;53.40;;;;;;10438299;28;20212;-64
2021/12/11 19:53:36;;;;;;;4.47;3.13;;;17.00;53.50;;;;;;10451497;28;20208;-64
2021/12/11 19:58:59;;;;;;;2.93;2.57;;;17.00;53.40;;;;;;10445507;28;20182;-65
2021/12/11 20:04:22;;;;;;;4.00;3.33;;;17.00;53.50;;;;;;10411187;28;20224;-64
2021/12/11 20:09:51;;;;;;;4.00;2.83;;;17.00;53.40;;;;;;10410714;28;20225;-65
2021/12/11 20:15:16;;;;;;;3.63;3.03;;;17.00;53.40;;;;;;10410750;28;20181;-65
2021/12/11 20:20:39;;;;;;;3.90;3.20;;;17.00;53.40;;;;;;10418397;28;20624;-64
2021/12/11 20:26:04;;;;;;;3.87;3.00;;;17.00;53.40;;;;;;10410179;28;20205;-65
2021/12/11 20:31:30;;;;;;;3.93;3.13;;;17.00;53.40;;;;;;10410543;28;20225;-64
2021/12/11 20:36:53;;;;;;;3.43;3.00;;;17.00;53.90;;;;;;10414364;28;20190;-65
2021/12/11 20:42:20;;;;;;;3.63;2.80;;;17.00;53.40;;;;;;10417951;28;20213;-65
2021/12/11 20:47:43;;;;;;;3.63;3.33;;;17.00;53.40;;;;;;10419534;28;20217;-65
2021/12/11 20:53:06;;;;;;;4.20;3.03;;;17.00;53.50;;;;;;10458024;28;20208;-64
2021/12/11 20:58:30;;;;;;;4.30;3.27;;;17.00;53.50;;;;;;10458883;28;20659;-65
2021/12/11 21:03:56;;;;;;;5.03;3.10;;;17.00;53.50;;;;;;10457838;28;20205;-64
2021/12/11 21:09:24;;;;;;;3.50;3.07;;;17.00;53.50;;;;;;10447906;28;20208;-65
2021/12/11 21:14:48;;;;;;;4.50;3.23;;;17.00;53.50;;;;;;10375887;28;20194;-64
2021/12/11 21:20:16;;;;;;;4.83;2.83;;;17.00;53.50;;;;;;10412590;28;20217;-64
2021/12/11 21:25:45;;;;;;;3.77;3.07;;;17.00;53.50;;;;;;10417019;28;20264;-64
2021/12/11 21:31:13;;;;;;;3.50;2.93;;;17.00;53.50;;;;;;10416319;28;20296;-64
2021/12/11 21:36:37;;;;;;;3.90;3.50;;;17.00;53.50;;;;;;10416696;28;20672;-64
2021/12/11 21:42:06;;;;;;;3.67;2.87;;;17.00;53.50;;;;;;10415973;28;20213;-65
2021/12/11 21:47:30;;;;;;;3.53;3.17;;;17.00;53.60;;;;;;10436519;28;20672;-64
2021/12/11 21:52:53;;;;;;;4.23;3.43;;;16.90;53.60;;;;;;10455189;28;20213;-64
2021/12/11 21:58:17;;;;;;;4.27;3.17;;;16.90;53.70;;;;;;10456770;28;20197;-63
2021/12/11 22:03:45;;;;;;;3.53;2.97;;;16.90;53.80;;;;;;10461834;28;20278;-62
2021/12/11 22:09:11;;;;;;;4.00;3.10;;;16.90;53.80;;;;;;10445082;28;20559;-65
2021/12/11 22:14:37;;;;;;;3.53;3.13;;;16.90;53.80;;;;;;10434937;28;20545;-64
2021/12/11 22:20:05;;;;;;;4.73;3.70;;;16.90;53.80;;;;;;10413670;28;20209;-64
2021/12/11 22:25:36;;;;;;;3.27;2.97;;;16.90;53.80;;;;;;10413149;28;20221;-66
2021/12/11 22:31:01;;;;;;;4.43;3.60;;;16.90;53.80;;;;;;10412600;28;20217;-64
2021/12/11 22:36:26;;;;;;;4.10;3.20;;;16.90;53.80;;;;;;10413707;28;20194;-64
2021/12/11 22:41:50;;;;;;;4.23;3.57;;;16.90;53.80;;;;;;10412595;28;20221;-65
2021/12/11 22:47:16;;;;;;;4.00;3.33;;;16.80;53.90;;;;;;10443226;28;20675;-65
2021/12/11 22:52:40;;;;;;;3.80;3.17;;;16.80;53.80;;;;;;10444638;28;20757;-65
2021/12/11 22:58:07;;;;;;;4.63;3.47;;;16.90;53.90;;;;;;10454060;28;20204;-65
2021/12/11 23:03:33;;;;;;;4.00;3.27;;;16.90;53.90;;;;;;10453555;28;20217;-64
2021/12/11 23:09:02;;;;;;;3.63;3.20;;;16.90;53.90;;;;;;10444381;28;20190;-64
2021/12/11 23:14:31;;;;;;;4.47;3.73;;;16.80;53.80;;;;;;10412228;28;20189;-64
2021/12/11 23:19:57;;;;;;;3.33;3.00;;;16.80;54.40;;;;;;10443439;28;20213;-64
2021/12/11 23:25:26;;;;;;;4.03;3.13;;;16.90;54.00;;;;;;10452213;28;20283;-64
2021/12/11 23:30:54;;;;;;;3.97;3.57;;;16.80;53.90;;;;;;10468009;22;20225;-66
2021/12/11 23:36:20;;;;;;;4.73;3.70;;;16.80;53.90;;;;;;10409237;28;20212;-65
2021/12/11 23:41:48;;;;;;;4.33;3.50;;;16.80;54.00;;;;;;10366405;28;20194;-63
2021/12/11 23:47:13;;;;;;;4.37;3.40;;;16.80;54.00;;;;;;10367600;28;20214;-65
2021/12/11 23:52:37;;;;;;;4.77;3.43;;;16.80;54.00;;;;;;10367763;28;20548;-65
2021/12/11 23:58:01;;;;;;;4.07;3.53;;;16.80;54.00;;;;;;10370735;28;20222;-63
